Terminal Aerodrome Forecast
Issued by NWS

Home | Current Version | Previous Version | Text Only | Print | Product List | Glossary On
Versions: 1 2 3 4 5 6 7 8 9 10 11 12 13 14 15 16 17 18
000
FTUS44 KBMX 042300
TAFANB
TAF
KANB 042323Z 0500/0524 22009KT P6SM VCSH SCT020 OVC040
     FM050400 34007KT 4SM -RA OVC015
     FM050800 34006KT 4SM -RA OVC007
     FM052200 35009KT P6SM OVC015=

USA.gov is the U.S. government's official web portal to all federal, state and local government web resources and services.